Time;durP1;ratioP1;P1;durP2;ratioP2;P2;SDS_P1;SDS_P2;PMS_P1;PMS_P2;Temp;Humidity;BMP_temperature;BMP_pressure;BME280_temperature;BME280_humidity;BME280_pressure;Samples;Min_cycle;Max_cycle;Signal;HPM_P1;HPM_P2
2022/12/01 00:01:19;;;;;;;13.90;7.07;;;;;;;;;;5098595;28;20579;-64
2022/12/01 00:03:47;;;;;;;13.67;7.10;;;;;;;;;;5098108;28;20249;-64
2022/12/01 00:06:18;;;;;;;11.07;6.67;;;;;;;;;;5098330;28;20712;-64
2022/12/01 00:11:28;;;;;;;19.37;8.60;;;;;;;;;;5090923;28;20211;-64
2022/12/01 00:13:56;;;;;;;11.73;6.90;;;;;;;;;;5098282;28;20308;-64
2022/12/01 00:16:24;;;;;;;12.47;8.10;;;;;;;;;;5098529;28;20205;-64
2022/12/01 00:18:53;;;;;;;11.57;7.30;;;;;;;;;;5093732;28;20201;-64
2022/12/01 00:21:23;;;;;;;10.00;6.77;;;;;;;;;;5098205;28;20206;-64
2022/12/01 00:23:52;;;;;;;14.50;8.13;;;;;;;;;;5098461;28;20244;-64
2022/12/01 00:26:20;;;;;;;14.93;7.50;;;;;;;;;;5098135;28;20209;-64
2022/12/01 00:28:48;;;;;;;13.33;8.03;;;;;;;;;;5094130;28;20197;-64
2022/12/01 00:31:16;;;;;;;11.77;6.50;;;;;;;;;;5090247;28;20202;-64
2022/12/01 00:33:44;;;;;;;14.50;7.67;;;;;;;;;;5097625;28;20700;-64
2022/12/01 00:36:12;;;;;;;12.23;6.97;;;;;;;;;;5098040;28;20569;-64
2022/12/01 00:38:42;;;;;;;11.27;7.47;;;;;;;;;;5097241;28;20232;-64
2022/12/01 00:41:10;;;;;;;10.87;7.07;;;;;;;;;;5098102;28;20205;-64
2022/12/01 00:43:38;;;;;;;10.73;6.57;;;;;;;;;;5097965;28;20232;-64
2022/12/01 00:46:06;;;;;;;15.30;8.10;;;;;;;;;;5098122;28;20227;-64
2022/12/01 00:48:34;;;;;;;11.30;7.27;;;;;;;;;;5092613;28;20292;-64
2022/12/01 00:51:02;;;;;;;12.07;7.63;;;;;;;;;;5097770;28;20205;-64
2022/12/01 00:53:30;;;;;;;13.07;7.57;;;;;;;;;;5098073;28;20230;-64
2022/12/01 00:56:02;;;;;;;10.83;7.83;;;;;;;;;;5097616;28;20669;-64
2022/12/01 00:58:31;;;;;;;12.73;7.43;;;;;;;;;;5096977;28;20217;-64
2022/12/01 01:00:59;;;;;;;14.57;7.77;;;;;;;;;;5097004;28;20209;-64
2022/12/01 01:03:28;;;;;;;11.63;7.13;;;;;;;;;;5097345;28;20248;-64
2022/12/01 01:05:56;;;;;;;11.17;7.83;;;;;;;;;;5097500;28;20241;-64
2022/12/01 01:08:24;;;;;;;11.73;7.27;;;;;;;;;;5096902;28;20202;-64
2022/12/01 01:10:52;;;;;;;10.70;7.07;;;;;;;;;;5097919;28;20205;-64
2022/12/01 01:13:22;;;;;;;13.07;7.47;;;;;;;;;;5097522;28;20205;-64
2022/12/01 01:15:57;;;;;;;14.40;7.20;;;;;;;;;;5097926;28;20225;-64
2022/12/01 01:18:25;;;;;;;15.07;7.80;;;;;;;;;;5096316;28;20241;-64
2022/12/01 01:20:57;;;;;;;13.77;7.50;;;;;;;;;;5097624;28;20576;-64
2022/12/01 01:23:25;;;;;;;15.63;7.77;;;;;;;;;;5097383;28;20261;-64
2022/12/01 01:25:53;;;;;;;13.73;7.50;;;;;;;;;;5097495;28;20208;-64
2022/12/01 01:28:22;;;;;;;15.10;8.17;;;;;;;;;;5096816;28;20193;-65
2022/12/01 01:30:50;;;;;;;16.10;7.67;;;;;;;;;;5097493;28;20610;-64
2022/12/01 01:33:18;;;;;;;12.37;7.33;;;;;;;;;;5095983;28;20197;-64
2022/12/01 01:35:46;;;;;;;13.67;7.43;;;;;;;;;;5096796;28;20573;-64
2022/12/01 01:38:14;;;;;;;13.87;7.50;;;;;;;;;;5101620;28;20229;-64
2022/12/01 01:40:43;;;;;;;11.53;7.07;;;;;;;;;;5101848;28;20212;-64
2022/12/01 01:43:14;;;;;;;15.23;7.57;;;;;;;;;;5101523;28;20205;-64
2022/12/01 01:45:43;;;;;;;11.70;7.27;;;;;;;;;;5096013;28;20570;-65
2022/12/01 01:48:13;;;;;;;12.53;7.63;;;;;;;;;;5101254;28;20212;-64
2022/12/01 01:50:41;;;;;;;14.03;7.57;;;;;;;;;;5101320;28;20212;-64
2022/12/01 01:53:12;;;;;;;14.33;7.43;;;;;;;;;;5101067;28;20210;-64
2022/12/01 01:55:40;;;;;;;12.50;7.23;;;;;;;;;;5100156;28;20201;-64
2022/12/01 01:58:09;;;;;;;12.17;7.57;;;;;;;;;;5100968;28;20599;-64
2022/12/01 02:00:38;;;;;;;11.97;7.47;;;;;;;;;;5101248;28;20205;-64
2022/12/01 02:03:08;;;;;;;10.20;7.23;;;;;;;;;;5100782;28;20206;-64
2022/12/01 02:05:37;;;;;;;8.47;6.33;;;;;;;;;;5099716;28;20598;-64
2022/12/01 02:08:11;;;;;;;8.97;6.80;;;;;;;;;;5100773;28;20542;-65
2022/12/01 02:10:47;;;;;;;11.20;6.60;;;;;;;;;;5101193;28;20216;-64
2022/12/01 02:13:20;;;;;;;10.97;6.67;;;;;;;;;;5100992;28;20287;-66
2022/12/01 02:15:52;;;;;;;9.97;6.53;;;;;;;;;;5099818;28;20564;-65
2022/12/01 02:18:27;;;;;;;10.23;7.00;;;;;;;;;;5100529;28;20232;-65
2022/12/01 02:21:04;;;;;;;11.23;6.60;;;;;;;;;;5100649;28;20213;-64
2022/12/01 02:23:51;;;;;;;9.57;6.33;;;;;;;;;;5099246;28;20225;-64
2022/12/01 02:26:34;;;;;;;11.83;7.30;;;;;;;;;;5099181;28;20567;-64
2022/12/01 02:29:22;;;;;;;10.10;6.53;;;;;;;;;;5098234;28;20669;-64
2022/12/01 02:31:56;;;;;;;10.27;6.43;;;;;;;;;;5090602;28;20202;-64
2022/12/01 02:34:27;;;;;;;8.27;6.13;;;;;;;;;;5093198;28;20301;-64
2022/12/01 02:36:58;;;;;;;11.17;6.17;;;;;;;;;;5098133;28;20208;-64
2022/12/01 02:39:32;;;;;;;11.43;6.83;;;;;;;;;;5088587;28;20703;-64
2022/12/01 02:42:04;;;;;;;8.93;6.50;;;;;;;;;;5100229;28;20533;-64
2022/12/01 02:44:34;;;;;;;12.23;6.37;;;;;;;;;;5098915;28;20213;-64
2022/12/01 02:47:09;;;;;;;10.17;6.03;;;;;;;;;;5100208;28;20208;-64
2022/12/01 02:49:41;;;;;;;9.43;6.63;;;;;;;;;;5100161;28;20551;-64
2022/12/01 02:52:10;;;;;;;12.47;5.93;;;;;;;;;;5100126;28;20210;-64
2022/12/01 02:54:38;;;;;;;10.83;6.87;;;;;;;;;;5098903;28;20224;-64
2022/12/01 02:57:06;;;;;;;11.53;6.90;;;;;;;;;;5100052;28;20213;-64
2022/12/01 02:59:34;;;;;;;10.70;6.30;;;;;;;;;;5100099;28;20222;-64
2022/12/01 03:02:10;;;;;;;9.23;6.53;;;;;;;;;;5099496;28;20216;-65
2022/12/01 03:04:41;;;;;;;13.57;7.20;;;;;;;;;;5097868;28;20641;-64
2022/12/01 03:07:14;;;;;;;9.27;6.90;;;;;;;;;;5092873;28;20225;-65
2022/12/01 03:09:46;;;;;;;9.97;7.13;;;;;;;;;;5111516;28;20201;-64
2022/12/01 03:12:20;;;;;;;10.87;6.90;;;;;;;;;;5120267;28;20238;-64
2022/12/01 03:14:52;;;;;;;11.30;6.90;;;;;;;;;;5109322;28;20229;-64
2022/12/01 03:17:27;;;;;;;10.70;7.17;;;;;;;;;;5099243;28;20198;-65
2022/12/01 03:19:58;;;;;;;11.93;6.93;;;;;;;;;;5099701;28;20225;-64
2022/12/01 03:22:28;;;;;;;11.63;6.87;;;;;;;;;;5099758;28;20206;-64
2022/12/01 03:24:57;;;;;;;11.63;6.67;;;;;;;;;;5098264;28;20742;-64
2022/12/01 03:27:28;;;;;;;11.43;7.23;;;;;;;;;;5099193;28;20214;-64
2022/12/01 03:29:57;;;;;;;11.30;7.23;;;;;;;;;;5099249;28;20198;-64
2022/12/01 03:32:30;;;;;;;10.53;7.27;;;;;;;;;;5099319;28;20209;-64
2022/12/01 03:35:00;;;;;;;11.63;7.23;;;;;;;;;;5098423;28;20240;-64
2022/12/01 03:37:30;;;;;;;10.13;6.87;;;;;;;;;;5099396;28;20209;-64
2022/12/01 03:39:59;;;;;;;11.40;7.27;;;;;;;;;;5099191;28;20591;-64
2022/12/01 03:42:30;;;;;;;9.27;6.97;;;;;;;;;;5099271;28;20258;-64
2022/12/01 03:45:00;;;;;;;10.67;6.80;;;;;;;;;;5092548;28;20289;-64
2022/12/01 03:47:31;;;;;;;10.80;7.00;;;;;;;;;;5098748;28;20568;-64
2022/12/01 03:50:00;;;;;;;8.47;6.53;;;;;;;;;;5098972;28;20546;-64
2022/12/01 03:52:33;;;;;;;9.90;6.80;;;;;;;;;;5099190;28;20211;-64
2022/12/01 03:55:06;;;;;;;10.87;7.37;;;;;;;;;;5097841;28;20230;-64
2022/12/01 03:57:38;;;;;;;10.53;7.13;;;;;;;;;;5098462;28;20653;-64
2022/12/01 04:00:07;;;;;;;11.97;7.03;;;;;;;;;;5099092;28;20233;-64
2022/12/01 04:02:36;;;;;;;10.73;6.63;;;;;;;;;;5098329;28;20206;-64
2022/12/01 04:05:05;;;;;;;11.67;6.97;;;;;;;;;;5088303;28;20309;-64
2022/12/01 04:07:33;;;;;;;12.47;7.17;;;;;;;;;;5087658;28;20205;-64
2022/12/01 04:10:01;;;;;;;11.83;6.77;;;;;;;;;;5098494;28;20255;-64
2022/12/01 04:12:28;;;;;;;11.57;7.30;;;;;;;;;;5098374;28;20206;-64
2022/12/01 04:14:56;;;;;;;11.57;7.20;;;;;;;;;;5097873;28;20224;-64
2022/12/01 04:17:25;;;;;;;9.87;6.03;;;;;;;;;;5098427;28;20202;-64
2022/12/01 04:19:54;;;;;;;13.20;7.60;;;;;;;;;;5097794;28;20229;-64
2022/12/01 04:22:23;;;;;;;9.40;7.27;;;;;;;;;;5098699;28;20209;-64
2022/12/01 04:24:51;;;;;;;13.73;8.13;;;;;;;;;;5089251;28;20245;-64
2022/12/01 04:27:19;;;;;;;11.03;6.93;;;;;;;;;;5095647;28;20209;-65
2022/12/01 04:29:47;;;;;;;11.17;6.53;;;;;;;;;;5098410;28;20206;-64
2022/12/01 04:32:15;;;;;;;12.10;7.07;;;;;;;;;;5086480;28;20198;-64
2022/12/01 04:34:43;;;;;;;9.30;6.63;;;;;;;;;;5097513;28;20228;-64
2022/12/01 04:37:13;;;;;;;10.93;7.03;;;;;;;;;;5097395;28;20653;-64
2022/12/01 04:39:42;;;;;;;11.00;7.30;;;;;;;;;;5098227;28;20236;-64
2022/12/01 04:42:10;;;;;;;12.03;7.03;;;;;;;;;;5098136;28;20205;-64
2022/12/01 04:44:38;;;;;;;11.10;6.70;;;;;;;;;;5091863;28;20225;-64
2022/12/01 04:47:06;;;;;;;10.17;6.40;;;;;;;;;;5094394;28;20229;-65
2022/12/01 04:49:36;;;;;;;8.90;7.03;;;;;;;;;;5098050;28;20212;-64
2022/12/01 04:52:04;;;;;;;10.57;6.83;;;;;;;;;;5098117;28;20211;-64
2022/12/01 04:54:33;;;;;;;10.77;6.60;;;;;;;;;;5097190;28;20221;-64
2022/12/01 04:57:01;;;;;;;13.70;7.17;;;;;;;;;;5097664;28;20672;-64
2022/12/01 04:59:29;;;;;;;12.10;8.27;;;;;;;;;;5097746;28;20588;-64
2022/12/01 05:01:57;;;;;;;9.23;7.40;;;;;;;;;;5097800;28;20201;-65
2022/12/01 05:04:25;;;;;;;11.93;7.00;;;;;;;;;;5096971;28;20249;-64
2022/12/01 05:06:54;;;;;;;11.23;7.80;;;;;;;;;;5092758;28;20245;-65
2022/12/01 05:09:22;;;;;;;11.47;7.43;;;;;;;;;;5107580;28;20207;-64
2022/12/01 05:11:51;;;;;;;10.10;6.60;;;;;;;;;;5122243;28;20212;-65
2022/12/01 05:14:19;;;;;;;12.87;6.93;;;;;;;;;;5111380;28;20228;-64
2022/12/01 05:16:47;;;;;;;9.97;6.70;;;;;;;;;;5110187;28;20206;-65
2022/12/01 05:22:01;;;;;;;11.03;6.77;;;;;;;;;;5101069;28;20926;-64
2022/12/01 05:24:29;;;;;;;12.50;6.90;;;;;;;;;;5107550;28;20217;-64
2022/12/01 05:26:58;;;;;;;9.67;6.77;;;;;;;;;;5109760;28;20203;-64
2022/12/01 05:29:26;;;;;;;9.70;6.77;;;;;;;;;;5104863;28;20200;-64
2022/12/01 05:31:55;;;;;;;12.60;7.03;;;;;;;;;;5102611;28;20204;-65
2022/12/01 05:34:23;;;;;;;8.80;6.40;;;;;;;;;;5101282;28;20693;-65
2022/12/01 05:36:54;;;;;;;10.27;6.67;;;;;;;;;;5101816;28;20198;-64
2022/12/01 05:39:22;;;;;;;11.77;7.33;;;;;;;;;;5100086;28;20217;-64
2022/12/01 05:41:50;;;;;;;10.50;8.73;;;;;;;;;;5104305;28;20251;-64
2022/12/01 05:44:19;;;;;;;9.63;7.17;;;;;;;;;;5101417;28;20587;-64
2022/12/01 05:46:47;;;;;;;10.03;7.27;;;;;;;;;;5102054;28;20217;-64
2022/12/01 05:49:15;;;;;;;11.60;7.20;;;;;;;;;;5098617;28;20197;-64
2022/12/01 05:51:43;;;;;;;9.13;6.30;;;;;;;;;;5107467;28;20207;-64
2022/12/01 05:54:11;;;;;;;11.17;7.47;;;;;;;;;;5121583;28;20599;-64
2022/12/01 05:56:39;;;;;;;10.93;6.80;;;;;;;;;;5121427;28;20578;-64
2022/12/01 05:59:07;;;;;;;9.63;6.27;;;;;;;;;;5102509;28;20217;-64
2022/12/01 06:01:37;;;;;;;12.07;6.73;;;;;;;;;;5099988;28;20236;-64
2022/12/01 06:04:05;;;;;;;9.83;6.50;;;;;;;;;;5101729;28;20225;-64
2022/12/01 06:06:32;;;;;;;10.33;6.47;;;;;;;;;;5110063;28;20316;-63
2022/12/01 06:09:00;;;;;;;8.13;6.23;;;;;;;;;;5095620;28;20202;-63
2022/12/01 06:11:28;;;;;;;11.37;8.50;;;;;;;;;;5107631;28;20647;-64
2022/12/01 06:13:56;;;;;;;12.20;7.43;;;;;;;;;;5108242;28;20245;-63
2022/12/01 06:16:25;;;;;;;10.10;6.87;;;;;;;;;;5100635;28;20201;-63
2022/12/01 06:18:57;;;;;;;12.03;7.00;;;;;;;;;;5103386;28;20200;-64
2022/12/01 06:21:25;;;;;;;11.47;6.53;;;;;;;;;;5103485;28;20229;-63
2022/12/01 06:23:53;;;;;;;10.70;6.13;;;;;;;;;;5100627;28;20231;-63
2022/12/01 06:26:21;;;;;;;12.13;7.07;;;;;;;;;;5100182;28;20202;-64
2022/12/01 06:28:49;;;;;;;9.83;6.47;;;;;;;;;;5100049;28;20198;-63
2022/12/01 06:31:17;;;;;;;9.57;6.60;;;;;;;;;;5096525;28;20194;-64
2022/12/01 06:33:45;;;;;;;10.90;6.60;;;;;;;;;;5092939;28;20230;-64
2022/12/01 06:36:15;;;;;;;11.67;6.70;;;;;;;;;;5095143;28;20557;-64
2022/12/01 06:38:43;;;;;;;9.20;6.60;;;;;;;;;;5100111;28;20610;-64
2022/12/01 06:41:11;;;;;;;11.27;6.67;;;;;;;;;;5096549;28;20218;-63
2022/12/01 06:43:38;;;;;;;8.40;6.53;;;;;;;;;;5099190;28;20226;-64
2022/12/01 06:46:06;;;;;;;11.93;7.83;;;;;;;;;;5097807;28;20203;-64
2022/12/01 06:48:35;;;;;;;11.57;6.90;;;;;;;;;;5099834;28;20205;-65
2022/12/01 06:51:03;;;;;;;8.83;6.23;;;;;;;;;;5092357;28;20675;-64
2022/12/01 06:53:32;;;;;;;11.67;6.60;;;;;;;;;;5097418;28;20217;-64
2022/12/01 06:56:01;;;;;;;11.20;6.87;;;;;;;;;;5110203;28;20214;-65
2022/12/01 06:58:29;;;;;;;11.80;6.90;;;;;;;;;;5108016;28;20237;-65
2022/12/01 07:04:25;;;;;;;8.80;6.67;;;;;;;;;;5089735;28;20200;-64
2022/12/01 07:06:54;;;;;;;10.57;7.07;;;;;;;;;;5090490;28;20332;-63
2022/12/01 07:09:24;;;;;;;11.93;6.57;;;;;;;;;;5089122;28;20256;-64
2022/12/01 07:11:52;;;;;;;11.23;6.77;;;;;;;;;;5101337;28;20203;-64
2022/12/01 07:14:23;;;;;;;10.47;6.40;;;;;;;;;;5099214;28;20710;-64
2022/12/01 07:16:58;;;;;;;13.63;6.87;;;;;;;;;;5089911;28;20708;-64
2022/12/01 07:19:26;;;;;;;10.27;6.37;;;;;;;;;;5097363;28;20603;-64
2022/12/01 07:21:55;;;;;;;10.57;6.83;;;;;;;;;;5099529;28;20217;-64
2022/12/01 07:24:25;;;;;;;11.20;6.93;;;;;;;;;;5102426;28;20275;-64
2022/12/01 07:26:53;;;;;;;11.17;6.90;;;;;;;;;;5096953;28;20201;-64
2022/12/01 07:29:25;;;;;;;9.47;6.27;;;;;;;;;;5098610;28;20212;-64
2022/12/01 07:31:59;;;;;;;8.83;6.43;;;;;;;;;;5111698;28;20231;-64
2022/12/01 07:34:27;;;;;;;11.40;6.57;;;;;;;;;;5119818;28;20225;-64
2022/12/01 07:37:05;;;;;;;9.30;6.50;;;;;;;;;;5116401;28;20209;-64
2022/12/01 07:39:35;;;;;;;11.63;5.17;;;;;;;;;;5099166;28;20574;-64
2022/12/01 07:42:03;;;;;;;13.00;7.13;;;;;;;;;;5090560;28;20229;-64
2022/12/01 07:44:31;;;;;;;12.33;7.13;;;;;;;;;;5097977;28;20323;-64
2022/12/01 07:46:59;;;;;;;10.37;6.67;;;;;;;;;;5081690;28;20219;-64
2022/12/01 07:49:28;;;;;;;15.07;6.70;;;;;;;;;;5099117;28;20206;-64
2022/12/01 07:51:56;;;;;;;8.93;6.27;;;;;;;;;;5091002;28;20281;-64
2022/12/01 07:54:25;;;;;;;7.77;6.07;;;;;;;;;;5098760;28;20309;-64
2022/12/01 07:56:55;;;;;;;13.43;7.47;;;;;;;;;;5096939;28;20205;-64
2022/12/01 07:59:23;;;;;;;8.33;5.63;;;;;;;;;;5092975;28;20665;-63
2022/12/01 08:01:51;;;;;;;8.80;6.13;;;;;;;;;;5097981;28;20615;-64
2022/12/01 08:04:21;;;;;;;10.67;6.80;;;;;;;;;;5084227;28;20317;-64
2022/12/01 08:06:49;;;;;;;10.67;6.23;;;;;;;;;;5093272;28;20237;-64
2022/12/01 08:09:17;;;;;;;11.23;6.53;;;;;;;;;;5093936;28;20209;-64
2022/12/01 08:11:45;;;;;;;11.63;6.53;;;;;;;;;;5098331;28;20685;-64
2022/12/01 08:14:15;;;;;;;8.90;5.90;;;;;;;;;;5087828;28;20302;-64
2022/12/01 08:16:43;;;;;;;13.57;6.87;;;;;;;;;;5089758;28;20204;-64
2022/12/01 08:19:11;;;;;;;8.17;5.57;;;;;;;;;;5098315;28;20214;-64
2022/12/01 08:21:39;;;;;;;11.53;6.40;;;;;;;;;;5098248;28;20233;-64
2022/12/01 08:24:08;;;;;;;10.80;6.80;;;;;;;;;;5089927;28;20253;-64
2022/12/01 08:26:36;;;;;;;13.07;7.03;;;;;;;;;;5096896;28;20239;-64
2022/12/01 08:29:04;;;;;;;11.87;6.57;;;;;;;;;;5095499;28;20204;-64
2022/12/01 08:31:35;;;;;;;11.97;6.53;;;;;;;;;;5109487;28;20225;-63
2022/12/01 08:34:05;;;;;;;10.83;7.07;;;;;;;;;;5098065;28;20230;-63
2022/12/01 08:36:33;;;;;;;8.07;6.00;;;;;;;;;;5084078;28;20212;-63
2022/12/01 08:39:02;;;;;;;9.60;6.83;;;;;;;;;;5097795;28;20205;-63
2022/12/01 08:41:30;;;;;;;9.90;6.17;;;;;;;;;;5097852;28;20316;-63
2022/12/01 08:43:58;;;;;;;9.30;6.47;;;;;;;;;;5097671;28;20226;-63
2022/12/01 08:46:31;;;;;;;14.20;7.57;;;;;;;;;;5097308;28;20205;-64
2022/12/01 08:49:00;;;;;;;11.50;7.13;;;;;;;;;;5098316;28;20202;-63
2022/12/01 08:51:29;;;;;;;8.97;5.73;;;;;;;;;;5105617;28;20203;-63
2022/12/01 08:53:58;;;;;;;11.77;7.07;;;;;;;;;;5105495;28;20222;-63
2022/12/01 08:56:27;;;;;;;9.67;6.53;;;;;;;;;;5106414;28;20308;-63
2022/12/01 08:58:56;;;;;;;9.90;6.07;;;;;;;;;;5104209;28;21022;-62
2022/12/01 09:01:26;;;;;;;11.03;6.20;;;;;;;;;;5102859;28;20222;-63
2022/12/01 09:04:06;;;;;;;11.27;6.77;;;;;;;;;;5096421;28;20228;-63
2022/12/01 09:06:39;;;;;;;14.03;6.90;;;;;;;;;;5092575;28;20578;-63
2022/12/01 09:09:07;;;;;;;10.87;7.10;;;;;;;;;;5097806;28;20284;-63
2022/12/01 09:11:35;;;;;;;9.47;7.20;;;;;;;;;;5097726;28;20201;-63
2022/12/01 09:14:03;;;;;;;9.70;6.73;;;;;;;;;;5098196;28;20225;-64
2022/12/01 09:16:31;;;;;;;9.60;6.17;;;;;;;;;;5094041;28;20201;-63
2022/12/01 09:19:00;;;;;;;10.73;5.53;;;;;;;;;;5097715;28;20220;-63
2022/12/01 09:21:30;;;;;;;9.73;6.23;;;;;;;;;;5097413;28;20276;-63
2022/12/01 09:23:59;;;;;;;8.73;5.83;;;;;;;;;;5094727;28;20719;-63
2022/12/01 09:26:28;;;;;;;10.67;6.37;;;;;;;;;;5098974;28;20201;-63
2022/12/01 09:28:56;;;;;;;10.17;6.47;;;;;;;;;;5096769;28;20574;-63
2022/12/01 09:31:27;;;;;;;9.33;6.20;;;;;;;;;;5096654;28;20202;-64
2022/12/01 09:33:56;;;;;;;9.57;6.43;;;;;;;;;;5090328;28;20300;-63
2022/12/01 09:36:28;;;;;;;9.63;6.77;;;;;;;;;;5103009;28;20206;-63
2022/12/01 09:38:57;;;;;;;10.57;6.43;;;;;;;;;;5105322;28;20676;-64
2022/12/01 09:41:30;;;;;;;9.63;6.50;;;;;;;;;;5097214;28;20676;-64
2022/12/01 09:44:04;;;;;;;8.13;5.50;;;;;;;;;;5100792;28;20726;-64
2022/12/01 09:46:34;;;;;;;10.80;7.87;;;;;;;;;;5109153;28;20192;-64
2022/12/01 09:49:04;;;;;;;10.40;6.53;;;;;;;;;;5096549;28;20541;-61
2022/12/01 09:51:36;;;;;;;10.87;6.77;;;;;;;;;;5092492;28;20722;-63
2022/12/01 09:54:04;;;;;;;10.00;5.83;;;;;;;;;;5095250;28;20222;-63
2022/12/01 09:56:42;;;;;;;11.10;7.30;;;;;;;;;;5093007;28;20229;-62
2022/12/01 09:59:16;;;;;;;10.53;6.27;;;;;;;;;;5097985;28;20201;-62
2022/12/01 10:01:46;;;;;;;8.93;5.93;;;;;;;;;;5093836;28;20299;-63
2022/12/01 10:04:16;;;;;;;11.33;7.03;;;;;;;;;;5099303;28;20221;-62
2022/12/01 10:06:47;;;;;;;9.47;6.73;;;;;;;;;;5095652;28;20237;-62
2022/12/01 10:09:19;;;;;;;8.63;6.20;;;;;;;;;;5120362;28;20205;-62
2022/12/01 10:11:50;;;;;;;9.23;6.47;;;;;;;;;;5112252;28;20202;-63
2022/12/01 10:14:19;;;;;;;12.83;6.93;;;;;;;;;;5092850;28;20224;-62
2022/12/01 10:16:52;;;;;;;11.57;6.67;;;;;;;;;;5095291;28;20240;-62
2022/12/01 10:19:25;;;;;;;12.00;6.90;;;;;;;;;;5100237;28;20210;-63
2022/12/01 10:22:00;;;;;;;10.40;6.07;;;;;;;;;;5096483;28;20224;-62
2022/12/01 10:24:34;;;;;;;12.53;8.10;;;;;;;;;;5099915;28;20225;-62
2022/12/01 10:27:08;;;;;;;13.93;7.00;;;;;;;;;;5094308;28;20212;-62
2022/12/01 10:29:40;;;;;;;9.67;7.07;;;;;;;;;;5120215;28;20199;-62
2022/12/01 10:32:17;;;;;;;10.43;7.07;;;;;;;;;;5092251;28;20571;-61
2022/12/01 10:34:46;;;;;;;11.03;6.93;;;;;;;;;;5095639;28;20257;-63
2022/12/01 10:37:17;;;;;;;11.57;6.83;;;;;;;;;;5098540;28;20205;-63
2022/12/01 10:39:46;;;;;;;10.37;6.87;;;;;;;;;;5099509;28;20207;-63
2022/12/01 10:42:19;;;;;;;11.20;7.53;;;;;;;;;;5095844;28;20214;-65
2022/12/01 10:44:47;;;;;;;10.20;7.17;;;;;;;;;;5098150;28;20226;-61
2022/12/01 10:47:19;;;;;;;11.23;7.30;;;;;;;;;;5099173;28;20282;-62
2022/12/01 10:49:47;;;;;;;12.17;6.47;;;;;;;;;;5087513;28;20205;-63
2022/12/01 10:52:31;;;;;;;10.43;5.73;;;;;;;;;;5091152;28;20256;-62
2022/12/01 10:55:02;;;;;;;11.87;7.43;;;;;;;;;;5086709;28;20320;-63
2022/12/01 10:57:31;;;;;;;9.17;5.87;;;;;;;;;;5102218;28;20208;-63
2022/12/01 11:00:01;;;;;;;10.70;6.70;;;;;;;;;;5107924;28;20275;-62
2022/12/01 11:02:30;;;;;;;9.73;6.97;;;;;;;;;;5106509;28;20649;-61
2022/12/01 11:05:00;;;;;;;10.53;6.97;;;;;;;;;;5106634;28;20228;-63
2022/12/01 11:07:29;;;;;;;10.27;6.27;;;;;;;;;;5102712;28;20233;-62
2022/12/01 11:10:04;;;;;;;11.07;6.37;;;;;;;;;;5102945;28;20231;-64
2022/12/01 11:12:34;;;;;;;9.57;6.50;;;;;;;;;;5086367;28;20204;-63
2022/12/01 11:15:02;;;;;;;10.17;6.23;;;;;;;;;;5110769;28;20259;-63
2022/12/01 11:17:31;;;;;;;11.30;6.60;;;;;;;;;;5093345;28;20578;-64
2022/12/01 11:20:16;;;;;;;9.23;6.07;;;;;;;;;;5100733;28;20201;-65
2022/12/01 11:22:44;;;;;;;10.57;6.67;;;;;;;;;;5104420;28;20239;-64
2022/12/01 11:25:18;;;;;;;9.37;6.10;;;;;;;;;;5109388;28;20597;-63
2022/12/01 11:27:50;;;;;;;9.80;6.63;;;;;;;;;;5099012;28;20208;-65
2022/12/01 11:30:22;;;;;;;10.33;6.47;;;;;;;;;;5089015;28;20225;-65
2022/12/01 11:32:52;;;;;;;11.07;6.10;;;;;;;;;;5094544;28;20204;-65
2022/12/01 11:35:22;;;;;;;10.70;7.27;;;;;;;;;;5097853;28;20217;-64
2022/12/01 11:37:51;;;;;;;12.60;6.43;;;;;;;;;;5085484;28;20238;-65
2022/12/01 11:40:45;;;;;;;16.33;6.57;;;;;;;;;;5084195;28;20194;-63
2022/12/01 11:43:21;;;;;;;12.80;7.00;;;;;;;;;;5085068;28;20218;-64
2022/12/01 11:45:49;;;;;;;14.97;7.20;;;;;;;;;;5085806;28;20572;-63
2022/12/01 11:48:23;;;;;;;12.60;7.07;;;;;;;;;;5088142;28;20204;-63
2022/12/01 11:51:00;;;;;;;11.57;7.10;;;;;;;;;;5097694;28;20199;-62
2022/12/01 11:53:29;;;;;;;11.47;6.70;;;;;;;;;;5083541;28;20213;-64
2022/12/01 11:56:12;;;;;;;9.20;6.27;;;;;;;;;;5081865;28;20209;-64
2022/12/01 11:58:41;;;;;;;10.37;6.40;;;;;;;;;;5080652;28;20293;-64
2022/12/01 12:01:14;;;;;;;12.53;6.27;;;;;;;;;;5086740;28;20205;-65
2022/12/01 12:03:52;;;;;;;10.50;6.33;;;;;;;;;;5100790;28;20228;-65
2022/12/01 12:06:22;;;;;;;9.80;6.53;;;;;;;;;;5099339;28;20244;-62
2022/12/01 12:09:16;;;;;;;10.87;6.33;;;;;;;;;;5085658;28;20296;-63
2022/12/01 12:11:47;;;;;;;9.10;5.90;;;;;;;;;;5093983;28;20292;-64
2022/12/01 12:14:24;;;;;;;9.17;5.87;;;;;;;;;;5098273;28;20596;-63
2022/12/01 12:17:09;;;;;;;10.77;6.47;;;;;;;;;;5091665;28;20724;-62
2022/12/01 12:19:46;;;;;;;8.63;5.80;;;;;;;;;;5098287;28;20205;-61
2022/12/01 12:22:41;;;;;;;8.93;6.30;;;;;;;;;;5087327;28;20198;-62
2022/12/01 12:25:20;;;;;;;10.50;6.57;;;;;;;;;;5096921;28;20274;-62
2022/12/01 12:27:51;;;;;;;8.73;6.27;;;;;;;;;;5099013;28;20320;-63
2022/12/01 12:30:23;;;;;;;10.63;6.00;;;;;;;;;;5118600;28;20273;-62
2022/12/01 12:33:06;;;;;;;10.13;5.30;;;;;;;;;;5112877;28;20214;-63
2022/12/01 12:35:38;;;;;;;8.97;5.90;;;;;;;;;;5088671;28;20202;-63
2022/12/01 12:38:20;;;;;;;11.33;6.27;;;;;;;;;;5098124;28;20205;-64
2022/12/01 12:40:53;;;;;;;11.50;6.90;;;;;;;;;;5094923;28;20303;-64
2022/12/01 12:43:24;;;;;;;11.03;6.33;;;;;;;;;;5097342;28;20251;-64
2022/12/01 12:46:00;;;;;;;9.80;6.33;;;;;;;;;;5097410;28;20205;-63
2022/12/01 12:48:34;;;;;;;12.07;6.93;;;;;;;;;;5097248;28;20201;-63
2022/12/01 12:51:25;;;;;;;7.87;5.20;;;;;;;;;;5081892;28;20206;-63
2022/12/01 12:53:58;;;;;;;10.10;6.47;;;;;;;;;;5092618;28;20594;-64
2022/12/01 12:56:27;;;;;;;11.43;6.97;;;;;;;;;;5097817;28;20205;-64
2022/12/01 12:58:57;;;;;;;11.50;6.03;;;;;;;;;;5097657;28;20887;-65
2022/12/01 13:01:28;;;;;;;13.07;6.47;;;;;;;;;;5097454;28;20202;-63
2022/12/01 13:03:59;;;;;;;14.33;6.03;;;;;;;;;;5094302;28;20225;-63
2022/12/01 13:06:30;;;;;;;8.53;6.10;;;;;;;;;;5089790;28;20592;-62
2022/12/01 13:09:01;;;;;;;8.63;5.87;;;;;;;;;;5096830;28;20209;-64
2022/12/01 13:11:30;;;;;;;9.80;6.00;;;;;;;;;;5097560;28;20304;-64
2022/12/01 13:14:01;;;;;;;8.87;5.80;;;;;;;;;;5096562;28;20217;-62
2022/12/01 13:16:33;;;;;;;8.57;5.60;;;;;;;;;;5090780;28;20213;-64
2022/12/01 13:19:04;;;;;;;9.57;5.43;;;;;;;;;;5095940;28;20197;-63
2022/12/01 13:21:36;;;;;;;8.90;5.90;;;;;;;;;;5097428;28;20236;-65
2022/12/01 13:24:05;;;;;;;9.70;5.63;;;;;;;;;;5093050;28;20277;-62
2022/12/01 13:26:34;;;;;;;8.93;5.70;;;;;;;;;;5093952;28;20220;-63
2022/12/01 13:29:04;;;;;;;10.50;6.37;;;;;;;;;;5092866;28;20258;-64
2022/12/01 13:31:43;;;;;;;10.33;5.47;;;;;;;;;;5101474;28;20242;-65
2022/12/01 13:34:19;;;;;;;8.20;5.90;;;;;;;;;;5104204;28;20220;-64
2022/12/01 13:36:51;;;;;;;8.37;5.53;;;;;;;;;;5104783;28;20660;-65
2022/12/01 13:39:20;;;;;;;10.20;6.13;;;;;;;;;;5108672;28;20249;-64
2022/12/01 13:41:57;;;;;;;9.40;5.50;;;;;;;;;;5108870;28;20221;-64
2022/12/01 13:44:26;;;;;;;7.07;5.07;;;;;;;;;;5109368;28;20229;-63
2022/12/01 13:46:59;;;;;;;8.67;6.20;;;;;;;;;;5109530;28;20211;-62
2022/12/01 13:49:33;;;;;;;10.50;6.20;;;;;;;;;;5110605;28;20559;-64
2022/12/01 13:52:19;;;;;;;6.93;5.60;;;;;;;;;;5107131;28;20656;-64
2022/12/01 13:54:59;;;;;;;7.37;5.03;;;;;;;;;;5089507;28;20225;-64
2022/12/01 13:57:29;;;;;;;9.60;5.20;;;;;;;;;;5108460;28;20201;-64
2022/12/01 14:00:21;;;;;;;9.37;5.27;;;;;;;;;;5106372;27;20216;-63
2022/12/01 14:03:03;;;;;;;6.73;4.73;;;;;;;;;;5107128;28;20251;-63
2022/12/01 14:05:49;;;;;;;10.27;5.57;;;;;;;;;;5108384;28;20316;-64
2022/12/01 14:08:21;;;;;;;8.13;5.30;;;;;;;;;;5109790;28;20316;-63
2022/12/01 14:10:55;;;;;;;8.63;5.17;;;;;;;;;;5111191;28;20224;-62
2022/12/01 14:13:24;;;;;;;8.13;5.27;;;;;;;;;;5100852;28;20213;-64
2022/12/01 14:15:54;;;;;;;7.97;5.03;;;;;;;;;;5089774;28;20550;-65
2022/12/01 14:18:27;;;;;;;11.13;5.67;;;;;;;;;;5098091;28;20208;-64
2022/12/01 14:21:00;;;;;;;6.57;4.20;;;;;;;;;;5099474;28;20247;-63
2022/12/01 14:23:29;;;;;;;8.30;4.57;;;;;;;;;;5100546;28;20261;-63
2022/12/01 14:26:14;;;;;;;7.00;4.70;;;;;;;;;;5107040;28;20229;-64
2022/12/01 14:29:12;;;;;;;6.17;4.70;;;;;;;;;;5096731;28;20213;-63
2022/12/01 14:31:58;;;;;;;7.33;4.87;;;;;;;;;;5037763;28;20200;-64
2022/12/01 14:34:29;;;;;;;6.70;5.00;;;;;;;;;;5085569;28;20245;-64
2022/12/01 14:37:02;;;;;;;6.53;4.93;;;;;;;;;;5106945;28;20657;-64
2022/12/01 14:39:32;;;;;;;5.53;4.17;;;;;;;;;;5105736;28;20265;-65
2022/12/01 14:42:00;;;;;;;7.33;5.03;;;;;;;;;;5101531;28;20197;-63
2022/12/01 14:44:29;;;;;;;6.63;4.50;;;;;;;;;;5103003;28;20260;-64
2022/12/01 14:46:59;;;;;;;7.80;4.90;;;;;;;;;;5100262;28;20253;-64
2022/12/01 14:49:29;;;;;;;7.57;4.97;;;;;;;;;;5098756;28;20254;-64
2022/12/01 14:52:02;;;;;;;9.60;4.60;;;;;;;;;;5104247;28;20281;-65
2022/12/01 14:54:32;;;;;;;7.03;4.47;;;;;;;;;;5102034;28;20232;-64
2022/12/01 14:57:01;;;;;;;7.63;4.93;;;;;;;;;;5104199;28;20197;-64
2022/12/01 14:59:34;;;;;;;5.30;4.23;;;;;;;;;;5103803;28;20193;-63
2022/12/01 15:02:07;;;;;;;9.43;5.37;;;;;;;;;;5107988;28;20225;-62
2022/12/01 15:04:36;;;;;;;6.70;4.37;;;;;;;;;;5107198;28;20254;-63